Pagrindinis puslapis
METAR-TAF:

METAR-TAF

Oro uostai :

Remada, Tunisas

platuma: 32-19N, ilguma: 010-24E, Aukštis: 300 m

Dabartinis oras

Ataskaita buvo paskelbta 1 valandą ir 12 minutes, ne 15:00 UTC
Vėjas 6 kt nuo kintamojo kryptimis
Temperatūra 35°C
Drėgmė 27%
Slėgis 1010 hPa
Matomumas 10 km arba daugiau
nėra debesų žemiau 1500 m ir nėra kamuolinių lietaus debesų

METAR: DTTD 251500Z VRB06KT CAVOK 35/13 Q1010

Laikas: 17:12 (16:12 UTC)


TAF: trūkstamas

Orai ataskaitas ir orų prognozės (METAR, TAF).

turimą stotys yra geltonos ir raudonos taškus žemėlapyje.

Perkelti pele per norėdami pamatyti stoties vardą.

Tada spustelėkite, norėdami matyti oro stebėjimo ir prognozės.

Norėdami pakeisti žemėlapį: spustelėkite ant žalios mygtukų su juodo kryžiaus žemyn,; žalią mygtuką su brūkšneliu, jei norite nutolinti; arba žalių rodyklių gretimoms žemėlapius.


METAR-TAF: